createdAt,value
2018-12-24T00:01:22.384Z,10.50
2018-12-24T00:03:52.040Z,10.50
2018-12-24T00:06:21.574Z,10.50
2018-12-24T00:08:51.158Z,10.50
2018-12-24T00:11:20.786Z,10.50
2018-12-24T00:13:51.726Z,10.50
2018-12-24T00:16:21.286Z,10.50
2018-12-24T00:18:50.871Z,10.40
2018-12-24T00:21:20.443Z,10.50
2018-12-24T00:23:50.025Z,10.50
2018-12-24T00:26:19.585Z,10.50
2018-12-24T00:28:50.826Z,10.50
2018-12-24T00:31:20.431Z,10.50
2018-12-24T00:33:50.880Z,10.50
2018-12-24T00:36:20.423Z,10.50
2018-12-24T00:38:50.417Z,10.50
2018-12-24T00:41:20.265Z,10.50
2018-12-24T00:43:49.850Z,10.50
2018-12-24T00:46:20.278Z,10.50
2018-12-24T00:48:50.490Z,10.50
2018-12-24T00:51:20.093Z,10.50
2018-12-24T00:53:49.673Z,10.50
2018-12-24T00:56:20.057Z,10.50
2018-12-24T00:58:49.734Z,10.50
2018-12-24T01:01:19.357Z,10.50
2018-12-24T01:03:48.889Z,10.50
2018-12-24T01:06:18.495Z,10.50
2018-12-24T01:08:48.057Z,10.50
2018-12-24T01:11:17.633Z,10.50
2018-12-24T01:13:47.245Z,10.50
2018-12-24T01:16:16.783Z,10.40
2018-12-24T01:18:46.381Z,10.40
2018-12-24T01:21:23.034Z,10.40
2018-12-24T01:23:52.616Z,10.40
2018-12-24T01:26:22.194Z,10.40
2018-12-24T01:28:51.761Z,10.40
2018-12-24T01:31:24.171Z,10.40
2018-12-24T01:33:53.708Z,10.40
2018-12-24T01:36:23.503Z,10.40
2018-12-24T01:38:54.113Z,10.40
2018-12-24T01:41:23.697Z,10.40
2018-12-24T01:43:53.225Z,10.40
2018-12-24T01:46:23.933Z,10.40
2018-12-24T01:48:53.497Z,10.40
2018-12-24T01:51:23.073Z,10.40
2018-12-24T01:53:52.795Z,10.40
2018-12-24T01:56:22.322Z,10.40
2018-12-24T01:58:51.893Z,10.40
2018-12-24T02:01:21.461Z,10.40
2018-12-24T02:03:51.594Z,10.40
2018-12-24T02:06:21.151Z,10.40
2018-12-24T02:08:50.724Z,10.40
2018-12-24T02:11:20.246Z,10.40
2018-12-24T02:13:49.827Z,10.40
2018-12-24T02:16:21.044Z,10.40
2018-12-24T02:18:50.601Z,10.40
2018-12-24T02:21:20.881Z,10.40
2018-12-24T02:23:50.444Z,10.40
2018-12-24T02:26:20.733Z,10.40
2018-12-24T02:28:50.295Z,10.40
2018-12-24T02:31:19.874Z,10.40
2018-12-24T02:33:49.458Z,10.40
2018-12-24T02:36:19.084Z,10.40
2018-12-24T02:38:48.664Z,10.40
2018-12-24T02:41:18.236Z,10.40
2018-12-24T02:43:47.810Z,10.40
2018-12-24T02:46:20.233Z,10.40
2018-12-24T02:48:50.544Z,10.40
2018-12-24T02:51:21.114Z,10.40
2018-12-24T02:53:51.570Z,10.40
2018-12-24T02:56:21.152Z,10.40
2018-12-24T02:58:50.768Z,10.40
2018-12-24T03:01:20.360Z,10.40
2018-12-24T03:03:50.038Z,10.40
2018-12-24T03:06:20.988Z,10.40
2018-12-24T03:08:50.562Z,10.40
2018-12-24T03:11:20.187Z,10.40
2018-12-24T03:13:49.794Z,10.40
2018-12-24T03:16:19.383Z,10.40
2018-12-24T03:18:49.629Z,10.40
2018-12-24T03:21:19.204Z,10.40
2018-12-24T03:23:48.784Z,10.40
2018-12-24T03:26:18.364Z,10.40
2018-12-24T03:28:49.022Z,10.40
2018-12-24T03:31:18.623Z,10.40
2018-12-24T03:33:48.278Z,10.40
2018-12-24T03:36:17.833Z,10.30
2018-12-24T03:38:48.300Z,10.30
2018-12-24T03:41:17.854Z,10.40
2018-12-24T03:43:47.426Z,10.40
2018-12-24T03:46:17.002Z,10.40
2018-12-24T03:48:48.994Z,10.30
2018-12-24T03:51:18.646Z,10.30
2018-12-24T03:53:48.171Z,10.30
2018-12-24T03:56:17.790Z,10.30
2018-12-24T03:58:47.364Z,10.30
2018-12-24T04:01:18.583Z,10.30
2018-12-24T04:03:49.156Z,10.30
2018-12-24T04:06:18.828Z,10.30
2018-12-24T04:08:48.393Z,10.30
2018-12-24T04:11:17.942Z,10.30
2018-12-24T04:13:47.560Z,10.30
2018-12-24T04:16:17.233Z,10.30
2018-12-24T04:18:46.823Z,10.30
2018-12-24T04:21:16.335Z,10.30
2018-12-24T04:23:45.922Z,10.30
2018-12-24T04:26:17.102Z,10.30
2018-12-24T04:28:47.661Z,10.30
2018-12-24T04:31:18.277Z,10.30
2018-12-24T04:33:47.865Z,10.30
2018-12-24T04:36:17.388Z,10.30
2018-12-24T04:38:47.014Z,10.30
2018-12-24T04:41:16.561Z,10.30
2018-12-24T04:43:46.178Z,10.30
2018-12-24T04:46:15.774Z,10.30
2018-12-24T04:48:45.334Z,10.30
2018-12-24T04:51:14.918Z,10.30
2018-12-24T04:53:44.485Z,10.30
2018-12-24T04:56:14.165Z,10.30
2018-12-24T04:58:44.705Z,10.30
2018-12-24T05:01:14.298Z,10.30
2018-12-24T05:03:43.867Z,10.30
2018-12-24T05:06:13.426Z,10.30
2018-12-24T05:08:42.954Z,10.30
2018-12-24T05:11:12.552Z,10.30
2018-12-24T05:13:42.116Z,10.30
2018-12-24T05:16:11.708Z,10.30
2018-12-24T05:18:41.306Z,10.30
2018-12-24T05:21:10.883Z,10.30
2018-12-24T05:23:40.505Z,10.30
2018-12-24T05:26:10.073Z,10.30
2018-12-24T05:28:39.656Z,10.30
2018-12-24T05:31:09.220Z,10.30
2018-12-24T05:33:38.817Z,10.30
2018-12-24T05:36:08.335Z,10.30
2018-12-24T05:38:37.926Z,10.30
2018-12-24T05:41:07.554Z,10.30
2018-12-24T05:43:37.084Z,10.30
2018-12-24T05:46:06.737Z,10.30
2018-12-24T05:48:36.318Z,10.30
2018-12-24T05:51:05.894Z,10.30
2018-12-24T05:53:35.473Z,10.30
2018-12-24T05:56:05.042Z,10.30
2018-12-24T05:58:34.706Z,10.30
2018-12-24T06:01:04.350Z,10.30
2018-12-24T06:03:33.943Z,10.30
2018-12-24T06:06:03.742Z,10.30
2018-12-24T06:08:33.321Z,10.30
2018-12-24T06:11:03.052Z,10.30
2018-12-24T06:13:32.637Z,10.30
2018-12-24T06:16:02.271Z,10.30
2018-12-24T06:18:31.849Z,10.30
2018-12-24T06:21:01.449Z,10.20
2018-12-24T06:23:31.057Z,10.20
2018-12-24T06:26:00.630Z,10.30
2018-12-24T06:28:30.225Z,10.20
2018-12-24T06:30:59.821Z,10.30
2018-12-24T06:33:29.483Z,10.30
2018-12-24T06:35:59.068Z,10.20
2018-12-24T06:38:28.599Z,10.20
2018-12-24T06:40:58.237Z,10.20
2018-12-24T06:43:27.820Z,10.20
2018-12-24T06:45:57.400Z,10.20
2018-12-24T06:48:27.007Z,10.20
2018-12-24T06:50:56.534Z,10.20
2018-12-24T06:53:26.179Z,10.20
2018-12-24T06:55:55.732Z,10.20
2018-12-24T06:58:25.344Z,10.20
2018-12-24T07:00:54.971Z,10.20
2018-12-24T07:03:24.556Z,10.20
2018-12-24T07:05:54.193Z,10.20
2018-12-24T07:08:23.770Z,10.20
2018-12-24T07:10:53.345Z,10.20
2018-12-24T07:13:22.959Z,10.20
2018-12-24T07:15:52.509Z,10.20
2018-12-24T07:18:22.126Z,10.20
2018-12-24T07:20:51.705Z,10.20
2018-12-24T07:23:21.293Z,10.20
2018-12-24T07:25:50.835Z,10.20
2018-12-24T07:28:20.436Z,10.20
2018-12-24T07:30:49.993Z,10.20
2018-12-24T07:33:19.619Z,10.20
2018-12-24T07:35:49.347Z,10.20
2018-12-24T07:38:18.951Z,10.20
2018-12-24T07:40:48.553Z,10.20
2018-12-24T07:43:18.182Z,10.20
2018-12-24T07:45:47.865Z,10.20
2018-12-24T07:48:17.519Z,10.20
2018-12-24T07:50:47.108Z,10.20
2018-12-24T07:53:16.713Z,10.20
2018-12-24T07:55:46.337Z,10.20
2018-12-24T07:58:15.928Z,10.20
2018-12-24T08:00:45.502Z,10.20
2018-12-24T08:03:15.104Z,10.20
2018-12-24T08:05:44.694Z,10.20
2018-12-24T08:08:14.274Z,10.20
2018-12-24T08:10:43.839Z,10.20
2018-12-24T08:13:13.450Z,10.20
2018-12-24T08:15:43.054Z,10.20
2018-12-24T08:18:12.621Z,10.20
2018-12-24T08:20:42.261Z,10.20
2018-12-24T08:23:11.857Z,10.20
2018-12-24T08:25:41.509Z,10.20
2018-12-24T08:28:11.139Z,10.20
2018-12-24T08:30:40.657Z,10.20
2018-12-24T08:33:10.248Z,10.20
2018-12-24T08:35:39.823Z,10.20
2018-12-24T08:38:09.428Z,10.20
2018-12-24T08:40:38.993Z,10.20
2018-12-24T08:43:08.588Z,10.20
2018-12-24T08:45:38.238Z,10.20
2018-12-24T08:48:09.117Z,10.20
2018-12-24T08:50:38.720Z,10.20
2018-12-24T08:53:08.296Z,10.20
2018-12-24T08:55:37.853Z,10.20
2018-12-24T08:58:07.486Z,10.20
2018-12-24T09:00:37.056Z,10.20
2018-12-24T09:03:06.652Z,10.20
2018-12-24T09:05:36.197Z,10.20
2018-12-24T09:08:05.852Z,10.20
2018-12-24T09:10:35.462Z,10.20
2018-12-24T09:13:05.022Z,10.20
2018-12-24T09:15:34.618Z,10.20
2018-12-24T09:18:04.248Z,10.20
2018-12-24T09:20:33.844Z,10.20
2018-12-24T09:23:03.457Z,10.20
2018-12-24T09:25:33.018Z,10.20
2018-12-24T09:28:02.601Z,10.20
2018-12-24T09:30:32.202Z,10.20
2018-12-24T09:33:01.822Z,10.20
2018-12-24T09:35:31.430Z,10.20
2018-12-24T09:38:01.038Z,10.20
2018-12-24T09:40:30.618Z,10.20
2018-12-24T09:43:00.225Z,10.20
2018-12-24T09:45:30.632Z,10.20
2018-12-24T09:48:00.206Z,10.20
2018-12-24T09:50:29.814Z,10.20
2018-12-24T09:52:59.391Z,10.20
2018-12-24T09:55:28.970Z,10.30
2018-12-24T09:57:58.606Z,10.30
2018-12-24T10:00:28.201Z,10.30
2018-12-24T10:03:25.734Z,10.30
2018-12-24T10:06:02.437Z,10.30
2018-12-24T10:08:32.031Z,10.30
2018-12-24T10:11:01.618Z,10.30
2018-12-24T10:13:31.209Z,10.20
2018-12-24T10:16:00.766Z,10.30
2018-12-24T10:18:30.478Z,10.30
2018-12-24T10:21:00.043Z,10.30
2018-12-24T10:23:29.670Z,10.30
2018-12-24T10:25:59.252Z,10.30
2018-12-24T10:28:29.110Z,10.30
2018-12-24T10:30:58.654Z,10.30
2018-12-24T10:33:28.753Z,10.30
2018-12-24T10:35:58.409Z,10.30
2018-12-24T10:38:28.029Z,10.30
2018-12-24T10:41:05.697Z,10.30
2018-12-24T10:43:35.318Z,10.30
2018-12-24T10:46:05.215Z,10.30
2018-12-24T10:48:34.856Z,10.30
2018-12-24T10:51:04.440Z,10.40
2018-12-24T10:53:34.061Z,10.40
2018-12-24T10:56:03.661Z,10.40
2018-12-24T10:58:33.635Z,10.40
2018-12-24T11:01:03.192Z,10.40
2018-12-24T11:03:32.799Z,10.50
2018-12-24T11:06:02.429Z,10.50
2018-12-24T11:08:32.032Z,10.50
2018-12-24T11:11:02.747Z,10.60
2018-12-24T11:13:32.300Z,10.60
2018-12-24T11:16:01.932Z,10.70
2018-12-24T11:18:31.561Z,10.70
2018-12-24T11:21:01.121Z,10.70
2018-12-24T11:23:30.753Z,10.70
2018-12-24T11:26:00.351Z,10.80
2018-12-24T11:28:29.946Z,10.80
2018-12-24T11:30:59.558Z,10.90
2018-12-24T11:33:29.169Z,10.90
2018-12-24T11:35:58.786Z,11.00
2018-12-24T11:38:28.460Z,11.00
2018-12-24T11:40:58.021Z,11.10
2018-12-24T11:43:27.624Z,11.10
2018-12-24T11:45:57.238Z,11.10
2018-12-24T11:48:27.568Z,11.20
2018-12-24T11:50:57.173Z,11.20
2018-12-24T11:53:27.100Z,11.20
2018-12-24T11:55:56.680Z,11.30
2018-12-24T11:58:27.885Z,11.40
2018-12-24T12:00:57.485Z,11.40
2018-12-24T12:03:27.193Z,11.40
2018-12-24T12:05:58.373Z,11.50
2018-12-24T12:08:28.294Z,11.50
2018-12-24T12:10:57.910Z,11.60
2018-12-24T12:13:27.517Z,11.60
2018-12-24T12:15:57.125Z,11.60
2018-12-24T12:18:26.734Z,11.60
2018-12-24T12:20:56.358Z,11.60
2018-12-24T12:23:25.951Z,11.60
2018-12-24T12:25:55.550Z,11.60
2018-12-24T12:28:25.136Z,11.60
2018-12-24T12:30:54.766Z,11.60
2018-12-24T12:33:24.347Z,11.50
2018-12-24T12:35:53.900Z,11.50
2018-12-24T12:38:29.680Z,11.50
2018-12-24T12:40:54.834Z,11.50
2018-12-24T12:43:24.449Z,11.50
2018-12-24T12:45:54.002Z,11.50
2018-12-24T12:48:23.614Z,11.50
2018-12-24T12:50:53.247Z,11.50
2018-12-24T12:53:22.873Z,11.40
2018-12-24T12:55:52.481Z,11.40
2018-12-24T12:58:22.077Z,11.50
2018-12-24T13:00:51.665Z,11.50
2018-12-24T13:03:21.312Z,11.50
2018-12-24T13:05:50.911Z,11.40
2018-12-24T13:08:20.495Z,11.40
2018-12-24T13:10:50.085Z,11.40
2018-12-24T13:13:19.695Z,11.40
2018-12-24T13:15:50.884Z,11.40
2018-12-24T13:18:22.166Z,11.40
2018-12-24T13:20:51.795Z,11.40
2018-12-24T13:23:21.371Z,11.40
2018-12-24T13:25:51.006Z,11.40
2018-12-24T13:28:20.597Z,11.40
2018-12-24T13:30:50.181Z,11.40
2018-12-24T13:33:19.792Z,11.40
2018-12-24T13:35:49.494Z,11.40
2018-12-24T13:38:19.110Z,11.30
2018-12-24T13:40:48.725Z,11.30
2018-12-24T13:43:18.286Z,11.40
2018-12-24T13:45:47.883Z,11.30
2018-12-24T13:48:17.456Z,11.30
2018-12-24T13:50:47.070Z,11.30
2018-12-24T13:53:16.682Z,11.30
2018-12-24T13:55:46.358Z,11.30
2018-12-24T13:58:15.944Z,11.30
2018-12-24T14:00:45.559Z,11.30
2018-12-24T14:03:15.210Z,11.30
2018-12-24T14:05:44.836Z,11.30
2018-12-24T14:08:14.376Z,11.30
2018-12-24T14:10:45.990Z,11.30
2018-12-24T14:13:15.686Z,11.30
2018-12-24T14:15:45.212Z,11.30
2018-12-24T14:18:14.818Z,11.30
2018-12-24T14:20:44.474Z,11.30
2018-12-24T14:23:14.046Z,11.30
2018-12-24T14:25:43.649Z,11.30
2018-12-24T14:28:13.234Z,11.30
2018-12-24T14:30:42.839Z,11.20
2018-12-24T14:33:12.402Z,11.20
2018-12-24T14:35:42.005Z,11.20
2018-12-24T14:38:11.604Z,11.20
2018-12-24T14:40:41.206Z,11.20
2018-12-24T14:43:10.801Z,11.20
2018-12-24T14:45:40.454Z,11.20
2018-12-24T14:48:10.033Z,11.20
2018-12-24T14:50:47.025Z,11.20
2018-12-24T14:53:10.965Z,11.20
2018-12-24T14:55:40.557Z,11.20
2018-12-24T14:58:10.121Z,11.20
2018-12-24T15:00:39.708Z,11.20
2018-12-24T15:03:12.455Z,11.20
2018-12-24T15:05:42.041Z,11.20
2018-12-24T15:08:11.577Z,11.20
2018-12-24T15:10:42.671Z,11.20
2018-12-24T15:13:12.459Z,11.20
2018-12-24T15:15:43.101Z,11.20
2018-12-24T15:18:12.682Z,11.20
2018-12-24T15:20:42.403Z,11.20
2018-12-24T15:23:12.027Z,11.20
2018-12-24T15:25:41.585Z,11.20
2018-12-24T15:28:11.165Z,11.20
2018-12-24T15:30:40.737Z,11.20
2018-12-24T15:33:13.013Z,11.20
2018-12-24T15:35:46.815Z,11.20
2018-12-24T15:38:16.358Z,11.20
2018-12-24T15:40:45.966Z,11.20
2018-12-24T15:43:17.162Z,11.20
2018-12-24T15:45:46.725Z,11.20
2018-12-24T15:48:16.360Z,11.20
2018-12-24T15:50:45.979Z,11.20
2018-12-24T15:53:17.038Z,11.20
2018-12-24T15:55:46.634Z,11.20
2018-12-24T15:58:16.235Z,11.20
2018-12-24T16:00:45.862Z,11.20
2018-12-24T16:03:15.534Z,11.10
2018-12-24T16:05:45.540Z,11.10
2018-12-24T16:08:15.103Z,11.10
2018-12-24T16:10:44.709Z,11.10
2018-12-24T16:13:14.316Z,11.10
2018-12-24T16:15:43.901Z,11.10
2018-12-24T16:18:13.599Z,11.10
2018-12-24T16:20:43.181Z,11.10
2018-12-24T16:23:12.949Z,11.10
2018-12-24T16:25:43.361Z,11.10
2018-12-24T16:28:12.951Z,11.10
2018-12-24T16:30:42.565Z,11.10
2018-12-24T16:33:12.206Z,11.10
2018-12-24T16:35:41.788Z,11.10
2018-12-24T16:38:11.425Z,11.10
2018-12-24T16:40:41.084Z,11.10
2018-12-24T16:43:10.769Z,11.10
2018-12-24T16:45:40.386Z,11.10
2018-12-24T16:48:10.012Z,11.10
2018-12-24T16:50:40.078Z,11.10
2018-12-24T16:53:09.617Z,11.10
2018-12-24T16:55:39.238Z,11.10
2018-12-24T16:58:08.806Z,11.10
2018-12-24T17:00:38.418Z,11.10
2018-12-24T17:03:07.955Z,11.10
2018-12-24T17:05:37.578Z,11.10
2018-12-24T17:08:07.141Z,11.10
2018-12-24T17:10:36.697Z,11.10
2018-12-24T17:13:06.270Z,11.00
2018-12-24T17:15:35.817Z,11.10
2018-12-24T17:18:05.401Z,11.10
2018-12-24T17:20:36.485Z,11.10
2018-12-24T17:23:06.073Z,11.10
2018-12-24T17:25:36.814Z,11.00
2018-12-24T17:28:06.473Z,11.00
2018-12-24T17:30:36.075Z,11.00
2018-12-24T17:33:05.654Z,11.00
2018-12-24T17:35:35.245Z,11.00
2018-12-24T17:38:04.805Z,11.00
2018-12-24T17:40:34.409Z,11.00
2018-12-24T17:43:03.931Z,11.00
2018-12-24T17:45:33.549Z,11.00
2018-12-24T17:48:03.188Z,11.00
2018-12-24T17:50:32.916Z,11.00
2018-12-24T17:53:02.552Z,11.00
2018-12-24T17:55:32.131Z,11.00
2018-12-24T17:58:01.722Z,11.00
2018-12-24T18:00:31.322Z,11.00
2018-12-24T18:03:00.910Z,11.00
2018-12-24T18:05:31.412Z,11.00
2018-12-24T18:08:01.988Z,11.00
2018-12-24T18:10:31.575Z,11.00
2018-12-24T18:13:01.150Z,11.00
2018-12-24T18:15:30.754Z,11.00
2018-12-24T18:18:00.318Z,11.00
2018-12-24T18:20:30.238Z,11.00
2018-12-24T18:22:59.842Z,11.00
2018-12-24T18:25:29.458Z,11.00
2018-12-24T18:27:59.774Z,11.00
2018-12-24T18:30:29.389Z,11.00
2018-12-24T18:32:58.980Z,11.00
2018-12-24T18:35:28.581Z,10.90
2018-12-24T18:37:58.167Z,11.00
2018-12-24T18:40:27.733Z,11.00
2018-12-24T18:42:57.314Z,11.00
2018-12-24T18:45:26.886Z,11.00
2018-12-24T18:47:56.836Z,11.00
2018-12-24T18:50:26.425Z,11.00
2018-12-24T18:52:56.025Z,11.00
2018-12-24T18:55:25.586Z,11.00
2018-12-24T18:57:55.220Z,11.00
2018-12-24T19:00:25.740Z,11.00
2018-12-24T19:02:56.334Z,11.00
2018-12-24T19:05:25.882Z,10.90
2018-12-24T19:07:55.472Z,10.90
2018-12-24T19:10:25.028Z,10.90
2018-12-24T19:12:54.637Z,10.90
2018-12-24T19:15:25.907Z,10.90
2018-12-24T19:17:55.592Z,10.90
2018-12-24T19:20:25.139Z,10.90
2018-12-24T19:22:55.638Z,10.90
2018-12-24T19:25:25.259Z,10.90
2018-12-24T19:27:55.150Z,10.90
2018-12-24T19:30:24.749Z,10.90
2018-12-24T19:32:54.372Z,10.90
2018-12-24T19:35:23.945Z,10.90
2018-12-24T19:37:53.493Z,10.90
2018-12-24T19:40:24.740Z,10.90
2018-12-24T19:42:54.355Z,10.90
2018-12-24T19:45:23.995Z,10.90
2018-12-24T19:47:53.576Z,10.90
2018-12-24T19:50:23.182Z,10.90
2018-12-24T19:52:52.777Z,10.90
2018-12-24T19:55:22.381Z,10.90
2018-12-24T19:57:51.927Z,10.90
2018-12-24T20:00:22.516Z,10.90
2018-12-24T20:02:52.105Z,10.90
2018-12-24T20:05:21.703Z,10.90
2018-12-24T20:07:51.230Z,10.90
2018-12-24T20:10:20.829Z,10.90
2018-12-24T20:12:50.444Z,10.80
2018-12-24T20:15:20.066Z,10.90
2018-12-24T20:17:49.619Z,10.90
2018-12-24T20:20:19.236Z,10.90
2018-12-24T20:22:49.685Z,10.90
2018-12-24T20:25:19.261Z,10.90
2018-12-24T20:27:48.949Z,10.90
2018-12-24T20:30:18.503Z,10.90
2018-12-24T20:32:48.157Z,10.80
2018-12-24T20:35:17.725Z,10.90
2018-12-24T20:37:47.347Z,10.80
2018-12-24T20:40:16.933Z,10.80
2018-12-24T20:42:46.520Z,10.80
2018-12-24T20:45:16.139Z,10.80
2018-12-24T20:47:45.729Z,10.80
2018-12-24T20:50:15.281Z,10.80
2018-12-24T20:52:44.942Z,10.80
2018-12-24T20:55:14.517Z,10.80
2018-12-24T20:57:44.056Z,10.80
2018-12-24T21:00:13.692Z,10.80
2018-12-24T21:02:43.240Z,10.80
2018-12-24T21:05:12.899Z,10.80
2018-12-24T21:07:42.538Z,10.80
2018-12-24T21:10:12.185Z,10.80
2018-12-24T21:12:41.740Z,10.80
2018-12-24T21:15:11.328Z,10.80
2018-12-24T21:17:40.890Z,10.80
2018-12-24T21:20:10.512Z,10.80
2018-12-24T21:22:40.099Z,10.80
2018-12-24T21:25:09.702Z,10.80
2018-12-24T21:27:39.282Z,10.80
2018-12-24T21:30:08.946Z,10.80
2018-12-24T21:32:38.566Z,10.80
2018-12-24T21:35:08.154Z,10.80
2018-12-24T21:37:37.778Z,10.80
2018-12-24T21:40:07.390Z,10.80
2018-12-24T21:42:37.022Z,10.80
2018-12-24T21:45:06.616Z,10.80
2018-12-24T21:47:37.977Z,10.80
2018-12-24T21:50:07.566Z,10.80
2018-12-24T21:52:37.145Z,10.80
2018-12-24T21:55:06.693Z,10.80
2018-12-24T21:57:36.289Z,10.70
2018-12-24T22:00:07.425Z,10.80
2018-12-24T22:02:36.969Z,10.80
2018-12-24T22:05:07.849Z,10.80
2018-12-24T22:07:37.421Z,10.70
2018-12-24T22:10:07.025Z,10.70
2018-12-24T22:12:36.584Z,10.70
2018-12-24T22:15:06.135Z,10.80
2018-12-24T22:17:35.760Z,10.80
2018-12-24T22:20:05.417Z,10.70
2018-12-24T22:22:35.004Z,10.70
2018-12-24T22:25:04.544Z,10.70
2018-12-24T22:27:34.165Z,10.80
2018-12-24T22:30:03.698Z,10.70
2018-12-24T22:32:33.338Z,10.70
2018-12-24T22:35:02.939Z,10.70
2018-12-24T22:37:32.513Z,10.70
2018-12-24T22:40:02.113Z,10.70
2018-12-24T22:42:33.318Z,10.70
2018-12-24T22:45:02.884Z,10.70
2018-12-24T22:47:32.478Z,10.70
2018-12-24T22:50:02.097Z,10.70
2018-12-24T22:52:31.686Z,10.70
2018-12-24T22:55:01.270Z,10.70
2018-12-24T22:57:30.845Z,10.70
2018-12-24T23:00:00.409Z,10.70
2018-12-24T23:02:29.965Z,10.70
2018-12-24T23:04:59.595Z,10.70
2018-12-24T23:07:29.172Z,10.70
2018-12-24T23:09:58.730Z,10.70
2018-12-24T23:12:28.359Z,10.70
2018-12-24T23:14:57.953Z,10.70
2018-12-24T23:17:27.556Z,10.70
2018-12-24T23:19:57.102Z,10.70
2018-12-24T23:22:26.670Z,10.70
2018-12-24T23:24:56.278Z,10.70
2018-12-24T23:27:25.865Z,10.70
2018-12-24T23:29:55.448Z,10.70
2018-12-24T23:32:25.042Z,10.70
2018-12-24T23:34:54.618Z,10.70
2018-12-24T23:37:24.193Z,10.70
2018-12-24T23:39:53.738Z,10.70
2018-12-24T23:42:23.340Z,10.70
2018-12-24T23:44:52.972Z,10.70
2018-12-24T23:47:22.534Z,10.70
2018-12-24T23:49:52.150Z,10.70
2018-12-24T23:52:21.726Z,10.70
2018-12-24T23:54:51.301Z,10.70
2018-12-24T23:57:20.884Z,10.70
2018-12-24T23:59:50.453Z,10.70
